Main page
METAR-TAF:

METAR-TAF

Airports :

Innsbruck Airport

Innsbruck, Austria

latitude: 47-16N, longitude: 011-21E, elevation: 581 m

Current weather observation

The report was made 18 minutes ago, at 05:50 UTC
Wind 2 kt from variable directions
Temperature 17°C
Humidity 77%
Pressure 1017 hPa
Visibility 10 km or more
Few clouds at a height of 6000 ft

METAR: LOWI 170550Z VRB02KT 9999 FEW060 17/13 Q1017 NOSIG

Time: 08:08 (06:08 UTC)

Forecast

The report was made 53 minutes ago, at 05:15 UTC
Forecast valid from 17 at 06 UTC to 18 at 06 UTC
Wind 2 kt from variable directions
Visibility 10 km or more
Few clouds at a height of 6000 ft
Becoming
from 17 at 10 UTC to 17 at 12 UTC
Wind 9 kt from the East
Temporary
from 17 at 13 UTC to 17 at 17 UTC
Few clouds at a height of 6000 ft, Cumulonimbus.
Becoming
from 17 at 18 UTC to 17 at 20 UTC
Wind 3 kt from the West

TAF: LOWI 170515Z 1706/1806 VRB02KT 9999 FEW060 TX24/1713Z TN13/1804Z BECMG 1710/1712 09009KT TEMPO 1713/1717 FEW060CB BECMG 1718/1720 27003KT

Weather observations and forecasts of more than 4000 airports (METAR and TAF reports).

The available stations are represented by yellow and red dots on the map.

Hover mouse over dot to see the name of the station.

Then click to see weather observations and forecasts.

To change the map : click on the green buttons with a black cross to zoom in, on the green button with a dash to zoom out, or on the green arrows for adjacent maps.


METAR-TAF: